createdAt,value
2023-05-10T00:02:21.369Z,11.77
2023-05-10T00:04:51.077Z,10.27
2023-05-10T00:07:19.268Z,9.70
2023-05-10T00:09:47.428Z,10.90
2023-05-10T00:12:15.979Z,10.68
2023-05-10T00:14:46.556Z,11.77
2023-05-10T00:17:14.738Z,9.82
2023-05-10T00:19:42.857Z,12.27
2023-05-10T00:22:12.696Z,11.50
2023-05-10T00:24:40.951Z,11.43
2023-05-10T00:27:09.071Z,13.02
2023-05-10T00:29:37.153Z,10.52
2023-05-10T00:32:07.761Z,17.10
2023-05-10T00:34:35.925Z,14.02
2023-05-10T00:37:03.993Z,13.10
2023-05-10T00:39:33.769Z,13.52
2023-05-10T00:42:02.117Z,13.75
2023-05-10T00:44:31.799Z,14.13
2023-05-10T00:47:01.163Z,13.45
2023-05-10T00:49:29.887Z,13.32
2023-05-10T00:51:58.122Z,16.02
2023-05-10T00:54:26.662Z,10.57
2023-05-10T00:56:57.861Z,12.65
2023-05-10T00:59:26.357Z,14.40
2023-05-10T01:01:54.956Z,11.70
2023-05-10T01:04:26.561Z,14.30
2023-05-10T01:06:55.487Z,12.55
2023-05-10T01:09:24.256Z,13.20
2023-05-10T01:11:52.450Z,13.35
2023-05-10T01:14:22.188Z,24.55
2023-05-10T01:16:51.982Z,14.07
2023-05-10T01:19:24.782Z,13.52
2023-05-10T01:27:34.470Z,10.97
2023-05-10T01:30:24.407Z,15.07
2023-05-10T01:33:03.077Z,12.77
2023-05-10T01:35:37.862Z,16.35
2023-05-10T01:38:25.334Z,13.15
2023-05-10T01:41:07.092Z,10.38
2023-05-10T01:43:52.562Z,10.35
2023-05-10T01:46:29.265Z,12.07
2023-05-10T01:49:02.637Z,11.23
2023-05-10T01:51:41.527Z,12.20
2023-05-10T01:54:11.713Z,13.00
2023-05-10T01:56:47.401Z,12.82
2023-05-10T01:59:21.875Z,11.95
2023-05-10T02:01:50.966Z,18.17
2023-05-10T02:04:24.000Z,11.93
2023-05-10T02:06:53.732Z,14.40
2023-05-10T02:09:22.753Z,14.18
2023-05-10T02:11:52.861Z,12.00
2023-05-10T02:14:22.098Z,12.30
2023-05-10T02:16:52.866Z,13.63
2023-05-10T02:19:24.036Z,15.02
2023-05-10T02:21:56.593Z,12.05
2023-05-10T02:24:26.512Z,14.18
2023-05-10T02:26:56.605Z,14.50
2023-05-10T02:29:28.922Z,13.83
2023-05-10T02:31:58.520Z,11.38
2023-05-10T02:34:29.535Z,13.48
2023-05-10T02:36:58.504Z,15.77
2023-05-10T02:39:30.384Z,14.18
2023-05-10T02:41:59.687Z,13.52
2023-05-10T02:44:32.136Z,16.98
2023-05-10T02:47:00.819Z,15.13
2023-05-10T02:49:32.790Z,13.02
2023-05-10T02:52:04.077Z,13.57
2023-05-10T02:54:39.811Z,14.48
2023-05-10T02:57:09.182Z,13.25
2023-05-10T02:59:37.921Z,10.45
2023-05-10T03:02:06.557Z,14.13
2023-05-10T03:04:38.423Z,17.00
2023-05-10T03:07:06.818Z,12.43
2023-05-10T03:09:35.260Z,10.63
2023-05-10T03:12:09.002Z,12.48
2023-05-10T03:14:55.079Z,13.30
2023-05-10T03:17:30.546Z,14.02
2023-05-10T03:20:08.447Z,13.48
2023-05-10T03:22:40.275Z,15.10
2023-05-10T03:25:12.594Z,10.55
2023-05-10T03:27:45.213Z,12.57
2023-05-10T03:30:15.184Z,21.73
2023-05-10T03:32:43.716Z,11.20
2023-05-10T03:35:15.278Z,12.90
2023-05-10T03:37:43.527Z,13.30
2023-05-10T03:40:12.077Z,13.15
2023-05-10T03:42:42.899Z,10.60
2023-05-10T03:45:11.993Z,17.55
2023-05-10T03:47:40.155Z,13.27
2023-05-10T03:50:09.543Z,11.07
2023-05-10T03:52:40.000Z,12.70
2023-05-10T03:55:10.648Z,11.95
2023-05-10T03:57:39.620Z,12.38
2023-05-10T04:00:09.726Z,12.63
2023-05-10T04:02:43.992Z,10.95
2023-05-10T04:05:18.568Z,10.57
2023-05-10T04:07:50.193Z,11.32
2023-05-10T04:10:19.009Z,11.43
2023-05-10T04:12:47.381Z,9.90
2023-05-10T04:15:15.790Z,12.30
2023-05-10T04:17:46.247Z,10.32
2023-05-10T04:20:15.957Z,10.32
2023-05-10T04:22:44.617Z,9.80
2023-05-10T04:25:14.547Z,11.45
2023-05-10T04:27:42.906Z,16.33
2023-05-10T04:30:11.740Z,15.30
2023-05-10T04:32:42.433Z,8.10
2023-05-10T04:35:11.670Z,8.57
2023-05-10T04:37:39.749Z,14.25
2023-05-10T04:40:09.202Z,14.57
2023-05-10T04:42:38.888Z,8.65
2023-05-10T04:45:08.310Z,10.23
2023-05-10T04:47:38.695Z,11.63
2023-05-10T04:50:08.235Z,9.27
2023-05-10T04:52:37.274Z,10.10
2023-05-10T04:55:05.883Z,8.93
2023-05-10T04:57:33.927Z,8.93
2023-05-10T05:00:04.032Z,11.43
2023-05-10T05:02:32.238Z,11.73
2023-05-10T05:05:00.457Z,6.95
2023-05-10T05:07:28.576Z,6.03
2023-05-10T05:09:56.668Z,12.70
2023-05-10T05:12:24.757Z,9.23
2023-05-10T05:14:52.987Z,12.10
2023-05-10T05:17:22.435Z,8.15
2023-05-10T05:19:50.910Z,7.38
2023-05-10T05:22:20.342Z,8.95
2023-05-10T05:24:48.512Z,8.75
2023-05-10T05:27:16.522Z,10.38
2023-05-10T05:29:44.774Z,6.85
2023-05-10T05:32:13.578Z,9.05
2023-05-10T05:34:43.042Z,12.18
2023-05-10T05:37:15.357Z,5.72
2023-05-10T05:39:43.917Z,7.78
2023-05-10T05:42:12.277Z,10.73
2023-05-10T05:44:41.121Z,11.57
2023-05-10T05:47:09.559Z,10.25
2023-05-10T05:49:37.710Z,7.88
2023-05-10T05:52:07.233Z,10.18
2023-05-10T05:54:35.340Z,8.85
2023-05-10T05:57:03.488Z,11.95
2023-05-10T05:59:33.895Z,8.57
2023-05-10T06:02:02.082Z,12.65
2023-05-10T06:04:33.144Z,6.82
2023-05-10T06:07:03.459Z,7.35
2023-05-10T06:09:33.157Z,7.93
2023-05-10T06:12:03.582Z,8.75
2023-05-10T06:14:31.597Z,5.97
2023-05-10T06:17:00.704Z,5.03
2023-05-10T06:19:28.863Z,9.52
2023-05-10T06:21:57.113Z,6.18
2023-05-10T06:24:25.196Z,9.00
2023-05-10T06:26:54.690Z,8.95
2023-05-10T06:29:22.889Z,10.30
2023-05-10T06:31:52.096Z,7.82
2023-05-10T06:34:21.517Z,6.85
2023-05-10T06:36:50.450Z,7.25
2023-05-10T06:39:20.914Z,9.60
2023-05-10T06:41:49.964Z,11.23
2023-05-10T06:44:20.240Z,7.88
2023-05-10T06:46:48.481Z,7.78
2023-05-10T06:49:16.828Z,9.15
2023-05-10T06:51:44.886Z,8.95
2023-05-10T06:54:13.217Z,10.63
2023-05-10T06:56:41.377Z,6.03
2023-05-10T06:59:09.527Z,8.63
2023-05-10T07:01:38.982Z,4.32
2023-05-10T07:04:08.429Z,8.43
2023-05-10T07:06:38.562Z,7.57
2023-05-10T07:09:06.864Z,17.13
2023-05-10T07:11:35.168Z,16.08
2023-05-10T07:14:03.546Z,7.13
2023-05-10T07:16:31.725Z,8.55
2023-05-10T07:19:01.180Z,7.40
2023-05-10T07:21:30.153Z,5.80
2023-05-10T07:23:58.283Z,6.85
2023-05-10T07:26:26.667Z,4.93
2023-05-10T07:28:54.815Z,6.05
2023-05-10T07:31:23.416Z,4.90
2023-05-10T07:33:51.922Z,10.93
2023-05-10T07:36:21.616Z,6.75
2023-05-10T07:38:50.474Z,9.30
2023-05-10T07:41:18.549Z,10.85
2023-05-10T07:43:48.979Z,8.40
2023-05-10T07:46:17.354Z,9.05
2023-05-10T07:48:45.496Z,9.95
2023-05-10T07:51:13.663Z,7.97
2023-05-10T07:53:43.138Z,8.38
2023-05-10T07:56:26.074Z,8.05
2023-05-10T08:01:22.290Z,6.55
2023-05-10T08:03:51.706Z,5.90
2023-05-10T08:06:23.050Z,5.97
2023-05-10T08:08:53.173Z,7.78
2023-05-10T08:11:23.712Z,6.25
2023-05-10T08:13:52.846Z,7.60
2023-05-10T08:16:21.162Z,7.63
2023-05-10T08:18:50.176Z,4.82
2023-05-10T08:21:18.641Z,5.78
2023-05-10T08:23:49.896Z,7.78
2023-05-10T08:26:19.440Z,9.82
2023-05-10T08:28:47.555Z,10.50
2023-05-10T08:31:15.697Z,8.98
2023-05-10T08:33:44.664Z,6.95
2023-05-10T08:36:15.145Z,4.22
2023-05-10T08:38:43.243Z,7.93
2023-05-10T08:41:13.133Z,17.50
2023-05-10T08:43:47.077Z,11.93
2023-05-10T08:46:19.270Z,15.20
2023-05-10T08:48:48.132Z,8.95
2023-05-10T08:51:19.314Z,7.40
2023-05-10T08:53:48.159Z,7.00
2023-05-10T08:56:18.734Z,10.32
2023-05-10T08:58:48.309Z,11.07
2023-05-10T09:01:18.603Z,11.10
2023-05-10T09:03:48.619Z,8.90
2023-05-10T09:06:17.087Z,9.88
2023-05-10T09:08:46.781Z,4.97
2023-05-10T09:11:15.140Z,5.88
2023-05-10T09:13:44.418Z,4.57
2023-05-10T09:18:48.511Z,9.02
2023-05-10T09:21:18.096Z,10.00
2023-05-10T09:23:48.716Z,8.85
2023-05-10T09:26:17.242Z,9.40
2023-05-10T09:28:55.514Z,10.50
2023-05-10T09:31:26.127Z,17.25
2023-05-10T09:33:55.112Z,8.85
2023-05-10T09:36:23.429Z,5.10
2023-05-10T09:38:53.668Z,5.50
2023-05-10T09:41:24.064Z,6.65
2023-05-10T09:43:57.132Z,6.20
2023-05-10T09:46:27.016Z,10.68
2023-05-10T09:48:55.218Z,8.10
2023-05-10T09:51:27.847Z,7.82
2023-05-10T09:54:12.263Z,5.30
2023-05-10T09:56:41.498Z,11.43
2023-05-10T09:59:11.548Z,10.10
2023-05-10T10:01:41.670Z,5.70
2023-05-10T10:04:11.854Z,6.45
2023-05-10T10:06:40.411Z,6.05
2023-05-10T10:09:09.484Z,6.22
2023-05-10T10:11:38.767Z,8.20
2023-05-10T10:14:08.928Z,10.85
2023-05-10T10:16:39.944Z,6.28
2023-05-10T10:19:15.414Z,6.80
2023-05-10T10:21:43.549Z,8.35
2023-05-10T10:24:14.316Z,7.85
2023-05-10T10:26:44.066Z,9.70
2023-05-10T10:29:21.474Z,10.65
2023-05-10T10:31:54.593Z,9.82
2023-05-10T10:34:29.088Z,5.82
2023-05-10T10:36:58.331Z,7.15
2023-05-10T10:39:27.312Z,9.68
2023-05-10T10:41:56.465Z,6.53
2023-05-10T10:44:42.883Z,8.82
2023-05-10T10:47:30.730Z,11.20
2023-05-10T10:50:08.133Z,7.38
2023-05-10T10:52:37.595Z,7.45
2023-05-10T10:55:09.118Z,10.10
2023-05-10T10:57:47.141Z,10.05
2023-05-10T11:00:26.837Z,11.52
2023-05-10T11:02:57.861Z,7.30
2023-05-10T11:05:43.366Z,5.93
2023-05-10T11:08:19.188Z,10.80
2023-05-10T11:10:55.686Z,10.20
2023-05-10T11:13:31.343Z,7.60
2023-05-10T11:16:00.314Z,7.72
2023-05-10T11:18:31.739Z,5.78
2023-05-10T11:21:03.830Z,5.80
2023-05-10T11:23:33.527Z,8.95
2023-05-10T11:26:02.761Z,6.30
2023-05-10T11:28:30.956Z,6.38
2023-05-10T11:30:59.698Z,6.65
2023-05-10T11:33:27.847Z,6.15
2023-05-10T11:35:56.258Z,5.20
2023-05-10T11:38:25.854Z,4.72
2023-05-10T11:40:55.359Z,6.78
2023-05-10T11:43:29.181Z,9.20
2023-05-10T11:45:57.500Z,7.57
2023-05-10T11:48:25.671Z,6.53
2023-05-10T11:50:53.832Z,9.80
2023-05-10T11:53:23.777Z,11.88
2023-05-10T11:55:54.888Z,7.35
2023-05-10T11:58:24.264Z,16.48
2023-05-10T12:00:52.767Z,7.70
2023-05-10T12:03:21.242Z,7.18
2023-05-10T12:05:49.660Z,8.60
2023-05-10T12:08:22.558Z,13.50
2023-05-10T12:10:50.763Z,7.95
2023-05-10T12:13:22.086Z,7.72
2023-05-10T12:15:50.294Z,8.93
2023-05-10T12:18:26.514Z,10.85
2023-05-10T12:20:55.335Z,10.18
2023-05-10T12:23:23.466Z,6.90
2023-05-10T12:25:52.422Z,9.57
2023-05-10T12:28:22.323Z,4.68
2023-05-10T12:30:50.514Z,11.77
2023-05-10T12:33:19.834Z,10.30
2023-05-10T12:35:49.333Z,10.90
2023-05-10T12:38:31.987Z,9.00
2023-05-10T12:41:01.805Z,5.53
2023-05-10T12:43:31.744Z,7.28
2023-05-10T12:46:00.162Z,6.35
2023-05-10T12:48:32.109Z,7.45
2023-05-10T12:51:00.213Z,11.68
2023-05-10T12:53:28.587Z,6.43
2023-05-10T12:55:56.746Z,7.38
2023-05-10T12:58:34.995Z,10.30
2023-05-10T13:01:06.873Z,7.30
2023-05-10T13:03:35.061Z,8.68
2023-05-10T13:06:03.197Z,7.13
2023-05-10T13:08:34.451Z,5.78
2023-05-10T13:11:04.885Z,6.38
2023-05-10T13:13:32.972Z,4.60
2023-05-10T13:16:00.998Z,7.05
2023-05-10T13:18:30.930Z,9.00
2023-05-10T13:20:59.131Z,4.15
2023-05-10T13:23:27.202Z,10.13
2023-05-10T13:25:55.667Z,3.67
2023-05-10T13:28:23.723Z,13.65
2023-05-10T13:30:51.822Z,10.68
2023-05-10T13:33:20.361Z,4.53
2023-05-10T13:35:49.844Z,5.85
2023-05-10T13:38:19.435Z,5.63
2023-05-10T13:40:48.573Z,7.95
2023-05-10T13:43:17.000Z,5.03
2023-05-10T13:45:45.531Z,7.55
2023-05-10T13:48:13.586Z,11.68
2023-05-10T13:50:41.642Z,6.53
2023-05-10T13:53:11.152Z,8.18
2023-05-10T13:55:39.296Z,11.93
2023-05-10T13:58:07.347Z,9.10
2023-05-10T14:00:35.454Z,11.40
2023-05-10T14:03:07.384Z,5.68
2023-05-10T14:05:35.589Z,5.07
2023-05-10T14:08:04.834Z,4.82
2023-05-10T14:10:34.318Z,5.28
2023-05-10T14:13:04.232Z,4.43
2023-05-10T14:15:32.316Z,9.35
2023-05-10T14:18:00.491Z,8.13
2023-05-10T14:20:28.736Z,5.50
2023-05-10T14:22:56.892Z,6.45
2023-05-10T14:25:25.739Z,5.97
2023-05-10T14:27:55.616Z,17.60
2023-05-10T14:30:23.855Z,6.93
2023-05-10T14:32:56.342Z,9.80
2023-05-10T14:35:24.911Z,9.20
2023-05-10T14:37:53.257Z,6.22
2023-05-10T14:40:21.998Z,7.18
2023-05-10T14:42:50.252Z,5.03
2023-05-10T14:45:19.904Z,8.75
2023-05-10T14:47:48.131Z,6.55
2023-05-10T14:50:24.979Z,10.57
2023-05-10T14:53:03.145Z,4.90
2023-05-10T14:55:33.571Z,6.03
2023-05-10T14:58:01.795Z,7.47
2023-05-10T15:00:33.662Z,7.85
2023-05-10T15:03:02.463Z,8.70
2023-05-10T15:05:31.184Z,12.30
2023-05-10T15:07:59.715Z,8.75
2023-05-10T15:10:27.859Z,5.25
2023-05-10T15:12:55.933Z,9.80
2023-05-10T15:15:24.200Z,7.22
2023-05-10T15:17:53.651Z,6.72
2023-05-10T15:20:21.862Z,8.20
2023-05-10T15:22:49.993Z,7.30
2023-05-10T15:25:20.412Z,7.72
2023-05-10T15:27:51.268Z,8.35
2023-05-10T15:30:19.414Z,5.10
2023-05-10T15:32:47.504Z,10.57
2023-05-10T15:35:17.835Z,6.05
2023-05-10T15:37:46.204Z,6.97
2023-05-10T15:40:14.644Z,9.50
2023-05-10T15:42:42.829Z,7.30
2023-05-10T15:45:12.776Z,6.30
2023-05-10T15:47:41.335Z,10.50
2023-05-10T15:50:10.591Z,6.93
2023-05-10T15:52:40.249Z,4.78
2023-05-10T15:55:12.961Z,8.40
2023-05-10T15:57:42.503Z,7.45
2023-05-10T16:00:12.239Z,6.80
2023-05-10T16:02:40.845Z,15.35
2023-05-10T16:05:10.046Z,5.82
2023-05-10T16:07:42.373Z,11.30
2023-05-10T16:10:12.117Z,6.50
2023-05-10T16:12:40.786Z,9.45
2023-05-10T16:15:11.105Z,10.23
2023-05-10T16:17:39.366Z,6.95
2023-05-10T16:20:08.842Z,5.50
2023-05-10T16:22:37.066Z,9.32
2023-05-10T16:25:07.500Z,13.85
2023-05-10T16:27:35.684Z,6.70
2023-05-10T16:30:04.055Z,5.25
2023-05-10T16:32:32.152Z,14.85
2023-05-10T16:35:00.698Z,7.78
2023-05-10T16:37:29.384Z,11.15
2023-05-10T16:39:57.566Z,14.43
2023-05-10T16:42:28.060Z,16.10
2023-05-10T16:44:56.243Z,7.80
2023-05-10T16:47:26.745Z,14.18
2023-05-10T16:49:55.085Z,10.57
2023-05-10T16:52:23.779Z,13.18
2023-05-10T16:54:51.992Z,9.00
2023-05-10T16:57:20.331Z,13.95
2023-05-10T16:59:49.720Z,10.07
2023-05-10T17:02:17.967Z,10.73
2023-05-10T17:04:46.316Z,11.23
2023-05-10T17:07:14.703Z,11.73
2023-05-10T17:09:43.834Z,11.05
2023-05-10T17:12:12.343Z,11.48
2023-05-10T17:14:40.863Z,9.15
2023-05-10T17:17:10.307Z,13.30
2023-05-10T17:19:38.621Z,8.55
2023-05-10T17:22:06.734Z,13.23
2023-05-10T17:24:36.872Z,13.45
2023-05-10T17:27:05.170Z,11.07
2023-05-10T17:29:33.400Z,11.57
2023-05-10T17:32:04.171Z,11.48
2023-05-10T17:34:33.945Z,13.35
2023-05-10T17:37:02.300Z,11.73
2023-05-10T17:39:32.434Z,9.70
2023-05-10T17:42:00.817Z,15.43
2023-05-10T17:44:28.879Z,13.10
2023-05-10T17:46:56.951Z,12.75
2023-05-10T17:49:25.868Z,17.95
2023-05-10T17:51:55.346Z,15.30
2023-05-10T17:54:23.513Z,19.27
2023-05-10T17:56:54.196Z,19.85
2023-05-10T17:59:22.616Z,18.73
2023-05-10T18:01:50.815Z,30.98
2023-05-10T18:04:21.635Z,24.50
2023-05-10T18:06:50.050Z,19.42
2023-05-10T18:09:21.148Z,23.15
2023-05-10T18:11:49.248Z,18.75
2023-05-10T18:14:32.036Z,21.85
2023-05-10T18:17:05.596Z,18.05
2023-05-10T18:19:34.038Z,17.92
2023-05-10T18:22:02.193Z,21.88
2023-05-10T18:24:38.344Z,14.52
2023-05-10T18:27:07.864Z,13.23
2023-05-10T18:29:36.250Z,18.10
2023-05-10T18:32:04.636Z,18.95
2023-05-10T18:34:35.772Z,12.95
2023-05-10T18:37:07.143Z,17.70
2023-05-10T18:39:37.704Z,15.25
2023-05-10T18:42:06.798Z,12.93
2023-05-10T18:44:34.970Z,16.10
2023-05-10T18:47:03.100Z,13.20
2023-05-10T18:49:31.214Z,15.60
2023-05-10T18:51:59.301Z,15.23
2023-05-10T18:54:27.753Z,17.63
2023-05-10T18:56:58.607Z,12.18
2023-05-10T18:59:28.869Z,15.98
2023-05-10T19:01:57.533Z,19.80
2023-05-10T19:04:28.314Z,14.98
2023-05-10T19:06:56.941Z,15.68
2023-05-10T19:09:27.505Z,19.20
2023-05-10T19:11:56.936Z,14.40
2023-05-10T19:14:25.452Z,19.85
2023-05-10T19:16:54.337Z,19.83
2023-05-10T19:19:24.092Z,15.20
2023-05-10T19:21:52.370Z,19.90
2023-05-10T19:24:24.888Z,19.48
2023-05-10T19:26:52.988Z,16.25
2023-05-10T19:29:22.824Z,16.08
2023-05-10T19:31:52.412Z,17.40
2023-05-10T19:34:22.769Z,15.48
2023-05-10T19:36:51.291Z,19.85
2023-05-10T19:39:19.556Z,19.95
2023-05-10T19:41:49.163Z,19.90
2023-05-10T19:44:18.026Z,14.73
2023-05-10T19:46:47.567Z,12.38
2023-05-10T19:49:15.762Z,17.30
2023-05-10T19:51:43.810Z,17.00
2023-05-10T19:54:11.883Z,14.32
2023-05-10T19:56:39.949Z,15.50
2023-05-10T19:59:08.099Z,15.25
2023-05-10T20:01:36.542Z,13.85
2023-05-10T20:04:06.113Z,14.50
2023-05-10T20:06:34.303Z,12.77
2023-05-10T20:09:02.447Z,15.18
2023-05-10T20:11:30.927Z,18.75
2023-05-10T20:13:58.993Z,20.00
2023-05-10T20:16:27.251Z,16.45
2023-05-10T20:18:55.502Z,18.75
2023-05-10T20:21:26.387Z,15.20
2023-05-10T20:23:54.443Z,15.02
2023-05-10T20:26:22.596Z,18.98
2023-05-10T20:28:51.110Z,14.57
2023-05-10T20:31:19.363Z,19.05
2023-05-10T20:33:47.487Z,20.45
2023-05-10T20:36:16.012Z,19.77
2023-05-10T20:38:45.428Z,16.35
2023-05-10T20:41:13.474Z,18.23
2023-05-10T20:43:41.669Z,20.55
2023-05-10T20:46:09.880Z,16.27
2023-05-10T20:48:38.104Z,19.00
2023-05-10T20:51:06.228Z,19.35
2023-05-10T20:53:34.344Z,28.80
2023-05-10T20:56:03.880Z,25.30
2023-05-10T20:58:32.168Z,23.33
2023-05-10T21:01:01.696Z,19.73
2023-05-10T21:03:29.970Z,19.58
2023-05-10T21:05:58.156Z,18.17
2023-05-10T21:08:26.232Z,21.20
2023-05-10T21:10:54.752Z,19.00
2023-05-10T21:13:24.229Z,22.27
2023-05-10T21:15:52.380Z,19.80
2023-05-10T21:18:20.560Z,20.60
2023-05-10T21:20:51.242Z,19.45
2023-05-10T21:23:19.335Z,18.60
2023-05-10T21:25:47.453Z,20.52
2023-05-10T21:28:15.525Z,21.73
2023-05-10T21:30:47.773Z,22.17
2023-05-10T21:33:15.897Z,25.73
2023-05-10T21:35:44.416Z,30.33
2023-05-10T21:38:12.779Z,35.92
2023-05-10T21:40:41.180Z,24.65
2023-05-10T21:43:09.653Z,27.63
2023-05-10T21:45:38.044Z,27.58
2023-05-10T21:48:07.945Z,22.70
2023-05-10T21:50:36.134Z,23.67
2023-05-10T21:53:04.385Z,18.50
2023-05-10T21:55:32.593Z,20.55
2023-05-10T21:58:00.654Z,25.02
2023-05-10T22:00:28.803Z,24.15
2023-05-10T22:02:56.892Z,25.10
2023-05-10T22:05:26.494Z,28.42
2023-05-10T22:07:58.142Z,24.60
2023-05-10T22:10:26.210Z,28.40
2023-05-10T22:12:54.401Z,21.50
2023-05-10T22:15:22.556Z,22.98
2023-05-10T22:17:50.737Z,25.30
2023-05-10T22:20:19.258Z,24.88
2023-05-10T22:22:49.317Z,22.00
2023-05-10T22:25:19.702Z,27.02
2023-05-10T22:27:47.821Z,21.95
2023-05-10T22:30:16.534Z,23.58
2023-05-10T22:32:44.953Z,24.77
2023-05-10T22:35:13.063Z,23.95
2023-05-10T22:37:41.585Z,28.08
2023-05-10T22:40:12.509Z,24.65
2023-05-10T22:42:40.599Z,23.15
2023-05-10T22:45:10.321Z,23.45
2023-05-10T22:47:38.453Z,22.27
2023-05-10T22:50:07.609Z,25.52
2023-05-10T22:52:38.769Z,32.35
2023-05-10T22:55:07.903Z,28.23
2023-05-10T22:57:37.506Z,29.55
2023-05-10T23:00:07.107Z,28.17
2023-05-10T23:02:35.923Z,27.85
2023-05-10T23:05:05.328Z,29.13
2023-05-10T23:07:34.062Z,29.80
2023-05-10T23:10:02.157Z,29.58
2023-05-10T23:12:31.295Z,31.35
2023-05-10T23:15:00.795Z,34.30
2023-05-10T23:17:28.941Z,30.83
2023-05-10T23:19:57.240Z,28.95
2023-05-10T23:22:25.310Z,26.50
2023-05-10T23:24:53.373Z,27.13
2023-05-10T23:27:21.613Z,24.25
2023-05-10T23:29:52.269Z,27.13
2023-05-10T23:32:21.867Z,31.77
2023-05-10T23:34:50.015Z,26.95
2023-05-10T23:37:18.134Z,25.27
2023-05-10T23:39:48.266Z,26.63
2023-05-10T23:42:16.453Z,26.98
2023-05-10T23:44:44.542Z,28.88
2023-05-10T23:47:12.627Z,26.75
2023-05-10T23:49:42.936Z,28.42
2023-05-10T23:52:11.580Z,33.65
2023-05-10T23:54:39.748Z,31.15
2023-05-10T23:57:08.135Z,41.65
2023-05-10T23:59:36.449Z,42.08
